createdAt,value
2018-08-18T00:02:01.276Z,19.90
2018-08-18T00:07:30.527Z,19.80
2018-08-18T00:12:59.824Z,19.70
2018-08-18T00:18:29.071Z,19.60
2018-08-18T00:24:06.272Z,19.60
2018-08-18T00:29:36.407Z,19.40
2018-08-18T00:35:08.584Z,19.30
2018-08-18T00:40:39.016Z,19.30
2018-08-18T00:46:08.394Z,19.30
2018-08-18T00:51:42.046Z,19.30
2018-08-18T00:57:46.289Z,19.30
2018-08-18T01:03:15.696Z,19.30
2018-08-18T01:08:44.967Z,19.20
2018-08-18T01:14:19.700Z,19.20
2018-08-18T01:19:49.141Z,19.10
2018-08-18T01:25:18.473Z,19.10
2018-08-18T01:31:02.076Z,19.00
2018-08-18T01:36:31.256Z,19.00
2018-08-18T01:42:00.576Z,18.90
2018-08-18T01:47:29.867Z,18.90
2018-08-18T01:52:59.159Z,18.80
2018-08-18T01:58:28.360Z,18.80
2018-08-18T02:03:57.631Z,18.70
2018-08-18T02:09:26.825Z,18.70
2018-08-18T02:14:56.480Z,18.70
2018-08-18T02:20:25.685Z,18.60
2018-08-18T02:25:55.740Z,18.60
2018-08-18T02:31:25.135Z,18.60
2018-08-18T02:36:54.385Z,18.50
2018-08-18T02:42:23.711Z,18.50
2018-08-18T02:48:10.318Z,18.50
2018-08-18T02:53:40.843Z,18.40
2018-08-18T02:59:10.814Z,18.40
2018-08-18T03:04:45.120Z,18.40
2018-08-18T03:10:18.591Z,18.40
2018-08-18T03:15:55.288Z,18.30
2018-08-18T03:21:30.917Z,18.20
2018-08-18T03:27:00.333Z,18.20
2018-08-18T03:32:29.529Z,18.10
2018-08-18T03:37:58.809Z,18.00
2018-08-18T03:43:28.104Z,17.90
2018-08-18T03:48:57.375Z,17.90
2018-08-18T03:54:26.791Z,17.80
2018-08-18T03:59:56.112Z,17.60
2018-08-18T04:05:25.340Z,17.60
2018-08-18T04:10:54.559Z,17.50
2018-08-18T04:16:23.771Z,17.40
2018-08-18T04:21:53.898Z,17.40
2018-08-18T04:27:38.482Z,17.30
2018-08-18T04:33:07.891Z,17.30
2018-08-18T04:38:37.119Z,17.30
2018-08-18T04:44:06.560Z,17.30
2018-08-18T04:49:35.849Z,17.40
2018-08-18T04:55:05.263Z,17.40
2018-08-18T05:00:34.484Z,17.50
2018-08-18T05:06:03.767Z,17.60
2018-08-18T05:11:33.066Z,17.80
2018-08-18T05:17:02.249Z,18.00
2018-08-18T05:22:31.501Z,18.20
2018-08-18T05:28:01.239Z,18.30
2018-08-18T05:33:30.505Z,18.50
2018-08-18T05:38:59.808Z,18.70
2018-08-18T05:44:29.689Z,19.00
2018-08-18T05:49:58.982Z,19.20
2018-08-18T05:55:28.380Z,19.30
2018-08-18T06:01:02.840Z,19.60
2018-08-18T06:06:32.203Z,19.80
2018-08-18T06:12:07.833Z,20.00
2018-08-18T06:17:37.110Z,20.20
2018-08-18T06:23:07.087Z,20.50
2018-08-18T06:28:36.315Z,20.80
2018-08-18T06:34:06.615Z,20.90
2018-08-18T06:39:54.358Z,21.10
2018-08-18T06:45:23.659Z,21.30
2018-08-18T06:50:53.533Z,21.50
2018-08-18T06:56:22.732Z,21.70
2018-08-18T07:01:52.214Z,21.90
2018-08-18T07:07:24.221Z,22.10
2018-08-18T07:12:55.845Z,22.20
2018-08-18T07:18:25.196Z,22.40
2018-08-18T07:23:54.724Z,22.60
2018-08-18T07:29:24.092Z,22.80
2018-08-18T07:34:53.398Z,23.10
2018-08-18T07:40:30.571Z,23.10
2018-08-18T07:46:01.376Z,23.10
2018-08-18T07:51:30.668Z,23.10
2018-08-18T07:57:06.096Z,23.20
2018-08-18T08:02:35.345Z,23.40
2018-08-18T08:08:04.867Z,23.50
2018-08-18T08:13:34.268Z,23.50
2018-08-18T08:19:03.904Z,23.50
2018-08-18T08:24:33.228Z,23.70
2018-08-18T08:30:02.543Z,24.00
2018-08-18T08:35:31.887Z,24.20
2018-08-18T08:41:01.195Z,24.40
2018-08-18T08:46:31.551Z,24.50
2018-08-18T08:52:00.853Z,24.70
2018-08-18T08:57:30.111Z,24.50
2018-08-18T09:02:59.711Z,24.40
2018-08-18T09:08:29.072Z,24.50
2018-08-18T09:14:06.608Z,24.50
2018-08-18T09:19:35.986Z,24.70
2018-08-18T09:25:11.504Z,24.40
2018-08-18T09:30:40.920Z,24.30
2018-08-18T09:36:10.453Z,23.90
2018-08-18T09:41:39.848Z,23.70
2018-08-18T09:47:09.211Z,23.60
2018-08-18T09:52:39.970Z,23.30
2018-08-18T09:58:09.689Z,23.20
2018-08-18T10:03:39.060Z,23.20
2018-08-18T10:09:09.688Z,23.10
2018-08-18T10:14:39.217Z,23.10
2018-08-18T10:20:08.943Z,23.20
2018-08-18T10:25:38.272Z,23.10
2018-08-18T10:31:07.900Z,23.10
2018-08-18T10:36:37.404Z,23.40
2018-08-18T10:42:15.584Z,23.70
2018-08-18T10:47:45.481Z,23.80
2018-08-18T10:53:14.965Z,24.10
2018-08-18T10:59:18.957Z,24.40
2018-08-18T11:04:48.188Z,25.20
2018-08-18T11:10:17.759Z,25.70
2018-08-18T11:15:47.103Z,26.00
2018-08-18T11:21:16.333Z,26.40
2018-08-18T11:26:48.133Z,26.70
2018-08-18T11:32:18.039Z,27.00
2018-08-18T11:38:03.157Z,27.30
2018-08-18T11:43:41.067Z,27.50
2018-08-18T11:49:10.407Z,27.50
2018-08-18T11:54:41.667Z,27.30
2018-08-18T12:00:11.149Z,27.50
2018-08-18T12:05:46.853Z,27.70
2018-08-18T12:11:16.466Z,27.90
2018-08-18T12:16:45.772Z,27.90
2018-08-18T12:22:15.115Z,27.90
2018-08-18T12:27:44.621Z,28.00
2018-08-18T12:33:19.205Z,27.90
2018-08-18T12:38:55.201Z,27.90
2018-08-18T12:44:29.779Z,27.90
2018-08-18T12:49:59.166Z,27.70
2018-08-18T12:55:28.437Z,27.70
2018-08-18T13:00:58.023Z,27.70
2018-08-18T13:06:27.359Z,27.60
2018-08-18T13:11:58.078Z,27.60
2018-08-18T13:17:27.239Z,27.60
2018-08-18T13:23:00.231Z,27.70
2018-08-18T13:28:29.675Z,27.80
2018-08-18T13:33:58.999Z,27.80
2018-08-18T13:39:28.281Z,27.90
2018-08-18T13:44:58.017Z,28.10
2018-08-18T13:50:27.354Z,28.30
2018-08-18T13:55:56.659Z,28.30
2018-08-18T14:01:38.963Z,28.30
2018-08-18T14:07:09.377Z,28.40
2018-08-18T14:12:38.986Z,28.60
2018-08-18T14:18:11.844Z,28.90
2018-08-18T14:23:41.368Z,28.90
2018-08-18T14:29:10.745Z,29.20
2018-08-18T14:34:41.120Z,29.60
2018-08-18T14:40:15.065Z,29.90
2018-08-18T14:45:44.652Z,30.50
2018-08-18T14:51:14.259Z,35.40
2018-08-18T14:56:44.402Z,38.50
2018-08-18T15:02:14.746Z,40.80
2018-08-18T15:07:50.289Z,41.90
2018-08-18T15:13:20.347Z,38.60
2018-08-18T15:18:50.767Z,35.40
2018-08-18T15:24:20.191Z,33.30
2018-08-18T15:29:49.618Z,31.80
2018-08-18T15:35:18.883Z,30.90
2018-08-18T15:40:48.197Z,30.40
2018-08-18T15:46:18.580Z,30.00
2018-08-18T15:51:47.929Z,32.00
2018-08-18T15:57:17.176Z,31.80
2018-08-18T16:02:51.617Z,30.60
2018-08-18T16:08:20.937Z,29.80
2018-08-18T16:13:50.633Z,29.10
2018-08-18T16:19:19.963Z,28.60
2018-08-18T16:24:49.696Z,28.30
2018-08-18T16:30:20.093Z,28.00
2018-08-18T16:35:49.664Z,27.80
2018-08-18T16:41:19.007Z,27.60
2018-08-18T16:46:48.485Z,27.40
2018-08-18T16:52:18.683Z,27.30
2018-08-18T16:57:48.793Z,27.20
2018-08-18T17:03:22.259Z,27.00
2018-08-18T17:08:51.487Z,26.80
2018-08-18T17:14:20.716Z,26.60
2018-08-18T17:19:49.964Z,26.50
2018-08-18T17:25:19.156Z,26.30
2018-08-18T17:30:51.325Z,26.30
2018-08-18T17:36:20.772Z,26.20
2018-08-18T17:41:50.895Z,26.10
2018-08-18T17:47:20.393Z,26.00
2018-08-18T17:52:50.221Z,25.90
2018-08-18T17:58:20.237Z,25.80
2018-08-18T18:03:49.552Z,25.80
2018-08-18T18:09:19.271Z,25.70
2018-08-18T18:14:48.644Z,25.60
2018-08-18T18:20:20.591Z,25.40
2018-08-18T18:25:50.222Z,25.30
2018-08-18T18:31:19.710Z,25.20
2018-08-18T18:36:50.295Z,25.10
2018-08-18T18:42:19.572Z,25.00
2018-08-18T18:47:48.956Z,24.80
2018-08-18T18:53:18.498Z,24.70
2018-08-18T18:58:47.811Z,24.50
2018-08-18T19:04:17.221Z,24.40
2018-08-18T19:09:46.702Z,24.30
2018-08-18T19:15:15.985Z,24.20
2018-08-18T19:20:45.432Z,24.00
2018-08-18T19:26:14.741Z,23.90
2018-08-18T19:31:44.339Z,23.70
2018-08-18T19:37:13.779Z,23.60
2018-08-18T19:42:43.132Z,23.40
2018-08-18T19:48:15.017Z,23.40
2018-08-18T19:53:44.518Z,23.20
2018-08-18T19:59:14.007Z,23.10
2018-08-18T20:04:43.346Z,23.00
2018-08-18T20:10:12.712Z,22.90
2018-08-18T20:15:45.232Z,22.80
2018-08-18T20:21:14.600Z,22.60
2018-08-18T20:26:43.951Z,22.50
2018-08-18T20:32:13.223Z,22.50
2018-08-18T20:37:43.017Z,22.30
2018-08-18T20:43:13.665Z,22.30
2018-08-18T20:48:44.106Z,22.20
2018-08-18T20:54:13.634Z,22.10
2018-08-18T20:59:42.967Z,22.00
2018-08-18T21:05:12.524Z,21.90
2018-08-18T21:10:41.862Z,21.80
2018-08-18T21:16:11.233Z,21.70
2018-08-18T21:21:41.499Z,21.60
2018-08-18T21:27:11.025Z,21.50
2018-08-18T21:32:40.435Z,21.50
2018-08-18T21:38:09.980Z,21.40
2018-08-18T21:43:40.324Z,21.30
2018-08-18T21:49:10.416Z,21.20
2018-08-18T21:54:40.032Z,21.10
2018-08-18T22:00:09.865Z,21.00
2018-08-18T22:05:39.673Z,20.90
2018-08-18T22:11:12.815Z,20.90
2018-08-18T22:16:47.488Z,20.80
2018-08-18T22:22:22.188Z,20.70
2018-08-18T22:27:53.456Z,20.70
2018-08-18T22:33:27.259Z,20.60
2018-08-18T22:38:57.561Z,20.50
2018-08-18T22:44:26.864Z,20.40
2018-08-18T22:49:56.085Z,20.30
2018-08-18T22:55:25.343Z,20.30
2018-08-18T23:00:55.990Z,20.20
2018-08-18T23:06:25.288Z,20.10
2018-08-18T23:11:55.623Z,20.10
2018-08-18T23:17:25.936Z,20.00
2018-08-18T23:22:59.460Z,19.90
2018-08-18T23:28:28.692Z,19.80
2018-08-18T23:33:57.911Z,19.70
2018-08-18T23:39:28.239Z,19.60
2018-08-18T23:44:57.438Z,19.50
2018-08-18T23:50:27.567Z,19.40
2018-08-18T23:55:59.248Z,19.40
